Time;durP1;ratioP1;P1;durP2;ratioP2;P2;SDS_P1;SDS_P2;PMS_P1;PMS_P2;Temp;Humidity;BMP_temperature;BMP_pressure;BME280_temperature;BME280_humidity;BME280_pressure;Samples;Min_cycle;Max_cycle;Signal;HPM_P1;HPM_P2
2022/06/26 00:02:07;;;;;;;0.50;0.50;;;15.70;99.90;15.90;101075.00;;;;5074702;28;20179;-67
2022/06/26 00:04:33;;;;;;;0.60;0.60;;;15.70;99.90;15.90;101096.00;;;;5075251;28;20188;-66
2022/06/26 00:07:07;;;;;;;0.60;0.60;;;15.70;99.90;15.90;101105.00;;;;5074273;28;20166;-68
2022/06/26 00:09:44;;;;;;;0.93;0.93;;;15.70;99.90;16.00;101071.00;;;;5074485;28;20276;-68
2022/06/26 00:12:18;;;;;;;0.50;0.50;;;15.70;99.90;15.90;101107.00;;;;5074342;28;20583;-68
2022/06/26 00:14:51;;;;;;;0.50;0.50;;;15.60;99.90;15.60;101101.00;;;;5074646;28;20665;-68
2022/06/26 00:17:17;;;;;;;0.50;0.50;;;15.50;99.90;15.50;101090.00;;;;5073978;28;20625;-68
2022/06/26 00:19:53;;;;;;;1.40;0.93;;;15.50;99.90;15.70;101082.00;;;;5075117;28;20206;-68
2022/06/26 00:22:29;;;;;;;0.50;0.50;;;15.50;99.90;15.60;101088.00;;;;5075721;28;20216;-68
2022/06/26 00:24:54;;;;;;;0.50;0.50;;;15.40;99.90;15.60;101094.00;;;;5074224;28;20171;-68
2022/06/26 00:27:38;;;;;;;0.50;0.50;;;15.40;99.90;15.70;101056.00;;;;5057428;28;20291;-68
2022/06/26 00:30:05;;;;;;;0.50;0.50;;;15.40;99.90;15.50;101094.00;;;;5073936;28;20192;-68
2022/06/26 00:32:43;;;;;;;0.50;0.50;;;15.40;99.90;15.40;101093.00;;;;5073933;28;20224;-68
2022/06/26 00:35:12;;;;;;;0.50;0.50;;;15.30;99.90;15.70;101101.00;;;;5074270;28;20166;-68
2022/06/26 00:37:46;;;;;;;0.60;0.60;;;15.40;99.90;15.70;101100.00;;;;5073860;28;20183;-68
2022/06/26 00:40:19;;;;;;;2.50;1.00;;;15.40;99.90;15.70;101100.00;;;;5074035;28;20569;-68
2022/06/26 00:42:45;;;;;;;0.60;0.60;;;15.40;99.90;15.60;101068.00;;;;5055174;28;20191;-69
2022/06/26 00:45:12;;;;;;;0.60;0.60;;;15.40;99.90;15.30;101060.00;;;;5053667;28;20191;-68
2022/06/26 00:47:46;;;;;;;0.70;0.70;;;15.20;99.90;15.40;101105.00;;;;5053618;28;20224;-68
2022/06/26 00:50:19;;;;;;;0.47;0.47;;;15.20;99.90;15.30;101103.00;;;;5053551;28;20175;-68
2022/06/26 00:52:45;;;;;;;0.50;0.50;;;15.20;99.90;15.50;101104.00;;;;5054318;28;20284;-68
2022/06/26 00:55:11;;;;;;;0.50;0.50;;;15.20;99.90;15.20;101109.00;;;;5053581;28;20162;-69
2022/06/26 00:57:40;;;;;;;0.83;0.83;;;15.10;99.90;15.30;101115.00;;;;5053593;28;20193;-69
2022/06/26 01:00:11;;;;;;;0.50;0.50;;;15.20;99.90;15.40;101114.00;;;;5053333;28;20178;-69
2022/06/26 01:02:37;;;;;;;0.50;0.50;;;15.20;99.90;15.30;101110.00;;;;5036358;28;20190;-68
2022/06/26 01:05:05;;;;;;;0.50;0.50;;;15.20;99.90;15.20;101116.00;;;;5036706;28;20179;-69
2022/06/26 01:07:32;;;;;;;0.50;0.50;;;15.10;99.90;15.40;101106.00;;;;5053413;28;20545;-68
2022/06/26 01:09:58;;;;;;;0.50;0.50;;;15.10;99.90;15.40;101111.00;;;;5053272;28;20187;-69
2022/06/26 01:12:26;;;;;;;0.60;0.60;;;15.20;99.90;15.30;101117.00;;;;5062315;28;20607;-69
2022/06/26 01:15:00;;;;;;;0.60;0.60;;;15.20;99.90;15.40;101116.00;;;;5072944;28;20193;-68
2022/06/26 01:17:34;;;;;;;0.50;0.50;;;15.20;99.90;15.20;101123.00;;;;5072462;28;20254;-68
2022/06/26 01:20:10;;;;;;;0.50;0.50;;;15.10;99.90;15.40;101120.00;;;;5072808;28;20178;-68
2022/06/26 01:22:43;;;;;;;0.50;0.50;;;15.10;99.90;15.30;101132.00;;;;5072755;28;20190;-68
2022/06/26 01:25:18;;;;;;;0.50;0.50;;;15.10;99.90;15.20;101131.00;;;;5072758;28;20189;-69
2022/06/26 01:28:02;;;;;;;0.40;0.40;;;15.10;99.90;15.10;101123.00;;;;5073807;28;20173;-68
2022/06/26 01:30:28;;;;;;;1.30;1.20;;;15.10;99.90;15.10;101120.00;;;;5072788;28;20273;-69
2022/06/26 01:32:54;;;;;;;0.50;0.50;;;15.10;99.90;15.30;101116.00;;;;5073240;28;20295;-69
2022/06/26 01:35:33;;;;;;;0.50;0.50;;;15.10;99.90;15.20;101121.00;;;;5072545;28;20699;-68
2022/06/26 01:38:22;;;;;;;1.00;1.00;;;15.00;99.90;15.40;101113.00;;;;5072521;28;20624;-68
2022/06/26 01:40:58;;;;;;;0.50;0.50;;;15.10;99.90;15.30;101107.00;;;;5054656;28;20196;-68
2022/06/26 01:43:35;;;;;;;0.50;0.50;;;15.10;99.90;15.10;101108.00;;;;5073548;28;20193;-68
2022/06/26 01:46:07;;;;;;;0.50;0.50;;;15.00;99.90;14.90;101116.00;;;;5073184;28;20168;-68
2022/06/26 01:48:43;;;;;;;0.50;0.50;;;14.90;99.90;15.00;101125.00;;;;5072571;28;20174;-68
2022/06/26 01:51:17;;;;;;;0.60;0.60;;;14.90;99.90;15.00;101096.00;;;;5072513;28;20193;-68
2022/06/26 01:53:43;;;;;;;0.70;0.70;;;14.90;99.90;15.10;101108.00;;;;5073598;28;20180;-68
2022/06/26 01:56:12;;;;;;;1.17;1.17;;;14.90;99.90;15.20;101096.00;;;;5072188;28;20166;-68
2022/06/26 01:58:45;;;;;;;0.80;0.80;;;15.00;99.90;15.10;101116.00;;;;5072687;28;20173;-68
2022/06/26 02:01:24;;;;;;;0.50;0.50;;;14.90;99.90;15.10;101108.00;;;;5072783;28;20688;-68
2022/06/26 02:03:56;;;;;;;0.60;0.60;;;14.90;99.90;15.10;101104.00;;;;5072139;28;20188;-68
2022/06/26 02:06:30;;;;;;;2.40;1.00;;;14.90;99.90;15.10;101071.00;;;;5072051;28;20279;-68
2022/06/26 02:13:35;;;;;;;0.77;0.77;;;14.80;99.90;14.70;101101.00;;;;5073191;28;20170;-66
2022/06/26 02:14:44;;;;;;;0.57;0.57;;;14.70;99.90;14.80;101107.00;;;;5072217;28;20227;-67
2022/06/26 02:17:10;;;;;;;0.60;0.60;;;14.70;99.90;14.80;101100.00;;;;5073034;28;20189;-69
2022/06/26 02:19:43;;;;;;;0.50;0.50;;;14.70;99.90;14.90;101068.00;;;;5072035;28;20169;-67
2022/06/26 02:22:18;;;;;;;0.70;0.70;;;14.70;99.90;14.70;101083.00;;;;5071989;28;20211;-68
2022/06/26 02:24:52;;;;;;;0.50;0.50;;;14.70;99.90;14.90;101112.00;;;;5072420;28;20685;-67
2022/06/26 02:27:28;;;;;;;1.53;1.27;;;14.70;99.90;14.90;101105.00;;;;5073292;28;20173;-67
2022/06/26 02:30:01;;;;;;;0.60;0.60;;;14.70;99.90;14.70;101102.00;;;;5071821;28;20535;-67
2022/06/26 02:32:43;;;;;;;0.50;0.50;;;14.70;99.90;14.80;101089.00;;;;5055058;28;20244;-68
2022/06/26 02:35:13;;;;;;;0.60;0.60;;;14.70;99.90;14.90;101099.00;;;;5073073;28;20175;-67
2022/06/26 02:37:44;;;;;;;0.90;0.80;;;14.70;99.90;14.60;101088.00;;;;5071814;28;20170;-67
2022/06/26 02:40:20;;;;;;;0.50;0.50;;;14.60;99.90;14.80;101094.00;;;;5072147;28;20164;-68
2022/06/26 02:42:56;;;;;;;0.60;0.60;;;14.70;99.90;14.80;101101.00;;;;5071391;28;20663;-67
2022/06/26 02:45:22;;;;;;;0.50;0.50;;;14.70;99.90;14.90;101106.00;;;;5071839;28;20185;-68
2022/06/26 02:47:49;;;;;;;0.50;0.50;;;14.70;99.90;14.70;101100.00;;;;5071822;28;20187;-67
2022/06/26 02:50:22;;;;;;;0.50;0.50;;;14.70;99.90;14.90;101110.00;;;;5073267;28;20211;-67
2022/06/26 02:52:57;;;;;;;0.50;0.50;;;14.70;99.90;14.70;101085.00;;;;5072879;28;20221;-67
2022/06/26 02:55:31;;;;;;;0.50;0.50;;;14.60;99.90;14.70;101121.00;;;;5073082;28;20272;-67
2022/06/26 02:58:03;;;;;;;0.50;0.50;;;14.60;99.90;14.70;101085.00;;;;5071443;28;20532;-67
2022/06/26 03:00:41;;;;;;;0.50;0.50;;;14.60;99.90;14.50;101117.00;;;;5072957;28;20166;-67
2022/06/26 03:03:17;;;;;;;0.50;0.50;;;14.50;99.90;14.60;101134.00;;;;5071541;28;20179;-66
2022/06/26 03:05:50;;;;;;;0.50;0.50;;;14.50;99.90;14.50;101138.00;;;;5071636;28;20171;-66
2022/06/26 03:08:37;;;;;;;0.47;0.47;;;14.50;99.90;14.80;101136.00;;;;5072816;28;20176;-67
2022/06/26 03:11:05;;;;;;;0.50;0.50;;;14.60;99.90;14.90;101094.00;;;;5071658;28;20177;-66
2022/06/26 03:13:48;;;;;;;1.33;0.80;;;14.70;99.90;14.60;101111.00;;;;5072765;28;20190;-66
2022/06/26 03:16:14;;;;;;;0.57;0.57;;;14.60;99.90;14.70;101147.00;;;;5072700;28;20165;-66
2022/06/26 03:18:52;;;;;;;0.50;0.50;;;14.60;99.90;14.80;101122.00;;;;5074415;28;20636;-67
2022/06/26 03:21:26;;;;;;;0.70;0.70;;;14.60;99.90;14.80;101131.00;;;;5075606;28;20192;-66
2022/06/26 03:24:02;;;;;;;0.77;0.77;;;14.60;99.90;14.70;101133.00;;;;5058841;28;20176;-67
2022/06/26 03:26:33;;;;;;;0.50;0.50;;;14.60;99.90;14.70;101094.00;;;;5075369;28;20557;-67
2022/06/26 03:29:00;;;;;;;0.60;0.60;;;14.60;99.90;14.80;101106.00;;;;5057911;28;20175;-66
2022/06/26 03:31:33;;;;;;;0.50;0.50;;;14.60;99.90;14.70;101130.00;;;;5067982;28;20201;-66
2022/06/26 03:34:17;;;;;;;0.60;0.60;;;14.60;99.90;14.70;101108.00;;;;5056567;28;20174;-66
2022/06/26 03:36:43;;;;;;;0.53;0.53;;;14.60;99.90;14.70;101142.00;;;;5055977;28;20166;-67
2022/06/26 03:39:26;;;;;;;0.60;0.60;;;14.60;99.90;14.60;101147.00;;;;5055361;28;20240;-67
2022/06/26 03:42:00;;;;;;;0.80;0.80;;;14.60;99.90;14.60;101148.00;;;;5056097;28;20644;-67
2022/06/26 03:44:30;;;;;;;1.27;1.27;;;14.60;99.90;14.60;101145.00;;;;5073709;28;20196;-67
2022/06/26 03:47:00;;;;;;;0.70;0.70;;;14.60;99.90;14.60;101123.00;;;;5075604;28;20168;-66
2022/06/26 03:49:26;;;;;;;0.50;0.50;;;14.60;99.90;14.50;101136.00;;;;5074671;28;20183;-67
2022/06/26 03:51:54;;;;;;;0.60;0.60;;;14.60;99.90;14.70;101144.00;;;;5074661;28;20201;-66
2022/06/26 03:54:21;;;;;;;0.60;0.60;;;14.60;99.90;14.60;101144.00;;;;5075984;28;20178;-67
2022/06/26 03:56:51;;;;;;;0.60;0.60;;;14.60;99.90;14.70;101144.00;;;;5074531;28;20233;-67
2022/06/26 03:59:17;;;;;;;0.50;0.50;;;14.60;99.90;14.90;101127.00;;;;5074418;28;20271;-67
2022/06/26 04:01:50;;;;;;;0.70;0.70;;;14.60;99.90;14.70;101150.00;;;;5075822;28;20273;-67
2022/06/26 04:04:33;;;;;;;0.70;0.70;;;14.60;99.90;14.80;101147.00;;;;5075326;28;20227;-67
2022/06/26 04:07:17;;;;;;;0.60;0.60;;;14.60;99.90;14.80;101149.00;;;;5075936;28;20648;-67
2022/06/26 04:09:43;;;;;;;0.50;0.50;;;14.60;99.90;14.50;101131.00;;;;5074289;28;20244;-67
2022/06/26 04:12:26;;;;;;;0.50;0.50;;;14.60;99.90;14.60;101116.00;;;;5057260;28;20209;-67
2022/06/26 04:14:55;;;;;;;0.70;0.70;;;14.60;99.90;15.00;101162.00;;;;5075667;28;20240;-67
2022/06/26 04:17:23;;;;;;;0.40;0.40;;;14.70;99.90;14.60;101170.00;;;;5074163;28;20182;-68
2022/06/26 04:19:49;;;;;;;0.80;0.80;;;14.60;99.90;14.50;101175.00;;;;5074203;28;20238;-68
2022/06/26 04:22:16;;;;;;;0.50;0.50;;;14.60;99.90;14.70;101179.00;;;;5074278;28;20178;-67
2022/06/26 04:24:42;;;;;;;0.40;0.40;;;14.60;99.90;14.80;101184.00;;;;5074092;28;20165;-67
2022/06/26 04:27:11;;;;;;;0.50;0.50;;;14.70;99.90;14.80;101178.00;;;;5073952;28;20177;-67
2022/06/26 04:29:57;;;;;;;0.57;0.57;;;14.70;99.90;14.60;101166.00;;;;5075570;28;20210;-67
2022/06/26 04:33:14;;;;;;;0.40;0.40;;;14.70;99.90;15.20;101181.00;;;;5074286;28;20291;-67
2022/06/26 04:35:40;;;;;;;1.13;1.13;;;14.80;99.90;15.50;101190.00;;;;5074332;28;20202;-67
2022/06/26 04:38:11;;;;;;;0.30;0.30;;;15.20;99.90;15.60;101160.00;;;;5074489;28;20170;-67
2022/06/26 04:40:51;;;;;;;0.57;0.57;;;15.50;99.90;15.80;101148.00;;;;5073614;28;20228;-67
2022/06/26 04:43:44;;;;;;;0.77;0.77;;;15.80;99.90;15.90;101193.00;;;;5057594;28;20210;-67
2022/06/26 04:46:38;;;;;;;1.40;1.27;;;15.80;99.90;15.70;101168.00;;;;5074246;28;20261;-67
2022/06/26 04:49:13;;;;;;;0.40;0.40;;;15.70;99.90;15.30;101168.00;;;;5073557;28;20183;-67
2022/06/26 04:51:39;;;;;;;0.30;0.30;;;15.60;99.90;15.40;101173.00;;;;5073946;28;20219;-67
2022/06/26 04:54:10;;;;;;;0.50;0.50;;;15.50;99.90;15.40;101170.00;;;;5073649;28;20504;-68
2022/06/26 04:56:42;;;;;;;0.40;0.40;;;15.50;99.90;15.50;101176.00;;;;5056850;28;20556;-67
2022/06/26 04:59:08;;;;;;;0.30;0.30;;;15.40;99.90;16.00;101183.00;;;;5073610;28;20189;-67
2022/06/26 05:01:37;;;;;;;0.30;0.30;;;15.60;99.90;15.70;101138.00;;;;5074723;28;20168;-68
2022/06/26 05:04:15;;;;;;;0.30;0.30;;;15.60;99.90;15.80;101175.00;;;;5074459;28;20200;-68
2022/06/26 05:06:45;;;;;;;0.50;0.50;;;15.60;99.90;15.40;101142.00;;;;5073072;28;20186;-67
2022/06/26 05:09:11;;;;;;;0.30;0.30;;;15.50;99.90;15.10;101179.00;;;;5073131;28;20528;-67
2022/06/26 05:11:42;;;;;;;0.30;0.30;;;15.30;99.90;15.10;101182.00;;;;5073309;28;20189;-67
2022/06/26 05:14:08;;;;;;;0.40;0.40;;;15.20;99.90;15.20;101206.00;;;;5074683;28;20185;-67
2022/06/26 05:16:34;;;;;;;0.40;0.40;;;15.10;99.90;15.50;101209.00;;;;5074689;28;20173;-67
2022/06/26 05:19:01;;;;;;;0.40;0.40;;;15.20;99.90;15.40;101206.00;;;;5072899;28;20312;-67
2022/06/26 05:21:29;;;;;;;0.40;0.40;;;15.30;99.90;15.20;101209.00;;;;5072975;28;20557;-67
2022/06/26 05:24:07;;;;;;;0.90;0.90;;;15.20;99.90;15.40;101209.00;;;;5072931;28;20182;-67
2022/06/26 05:26:35;;;;;;;0.60;0.60;;;15.30;99.90;15.40;101217.00;;;;5072891;28;20174;-67
2022/06/26 05:29:07;;;;;;;0.87;0.87;;;15.30;99.90;15.40;101213.00;;;;5074068;28;20176;-68
2022/06/26 05:31:33;;;;;;;0.50;0.50;;;15.30;99.90;15.80;101180.00;;;;5072830;28;20211;-68
2022/06/26 05:33:59;;;;;;;1.17;1.17;;;15.50;99.90;15.80;101215.00;;;;5072717;28;20538;-67
2022/06/26 05:36:25;;;;;;;0.63;0.63;;;15.50;99.90;15.80;101212.00;;;;5074210;28;20193;-67
2022/06/26 05:38:51;;;;;;;0.40;0.40;;;15.70;99.90;15.70;101212.00;;;;5072456;28;20217;-67
2022/06/26 05:41:17;;;;;;;0.40;0.40;;;15.60;99.90;15.70;101210.00;;;;5073136;28;20541;-67
2022/06/26 05:43:45;;;;;;;0.30;0.30;;;15.60;99.90;15.80;101216.00;;;;5072297;28;20190;-67
2022/06/26 05:46:11;;;;;;;0.33;0.33;;;15.70;99.90;15.50;101206.00;;;;5073449;28;20207;-67
2022/06/26 05:48:49;;;;;;;1.13;0.90;;;15.60;99.90;15.50;101188.00;;;;5073792;28;20214;-66
2022/06/26 05:51:18;;;;;;;0.30;0.30;;;15.50;99.90;15.50;101217.00;;;;5072115;28;20643;-66
2022/06/26 05:53:46;;;;;;;0.30;0.30;;;15.50;99.90;16.00;101218.00;;;;5072385;28;20176;-66
2022/06/26 05:56:33;;;;;;;0.30;0.30;;;15.80;99.90;15.80;101232.00;;;;5073870;28;20249;-66
2022/06/26 05:58:59;;;;;;;0.43;0.43;;;15.80;99.90;16.40;101240.00;;;;5072207;28;20259;-66
2022/06/26 06:01:35;;;;;;;0.30;0.30;;;16.20;99.90;16.70;101252.00;;;;5073227;28;20274;-66
2022/06/26 06:04:08;;;;;;;0.67;0.40;;;16.50;99.90;16.80;101262.00;;;;5072491;28;20178;-67
2022/06/26 06:06:37;;;;;;;0.77;0.77;;;16.60;99.90;16.90;101270.00;;;;5072333;28;20162;-67
2022/06/26 06:09:20;;;;;;;0.40;0.40;;;16.80;99.90;17.60;101266.00;;;;5071866;28;20167;-68
2022/06/26 06:11:51;;;;;;;2.23;2.10;;;17.40;99.90;17.60;101244.00;;;;5073536;28;20216;-67
2022/06/26 06:14:17;;;;;;;1.65;1.55;;;17.60;99.90;17.40;101268.00;;;;5071914;28;20193;-67
2022/06/26 06:16:43;;;;;;;1.23;1.02;;;17.70;99.90;17.40;101262.00;;;;5072133;28;20639;-67
2022/06/26 06:19:16;;;;;;;0.50;0.50;;;17.60;99.90;16.80;101256.00;;;;5072413;28;20184;-67
2022/06/26 06:22:53;;;;;;;1.27;1.17;;;17.20;99.90;16.80;101287.00;;;;5071833;28;20628;-67
2022/06/26 06:25:26;;;;;;;0.47;0.47;;;17.00;99.90;17.50;101290.00;;;;5055330;28;20216;-69
2022/06/26 06:28:10;;;;;;;0.30;0.30;;;17.40;99.90;17.40;101284.00;;;;5071890;28;20264;-68
2022/06/26 06:30:38;;;;;;;0.20;0.20;;;17.50;99.90;18.60;101271.00;;;;5072676;28;20544;-69
2022/06/26 06:33:11;;;;;;;0.20;0.20;;;18.10;99.90;18.50;101272.00;;;;5072123;28;20192;-69
2022/06/26 06:35:57;;;;;;;0.20;0.20;;;18.10;99.90;17.60;101266.00;;;;5071793;28;20648;-69
2022/06/26 06:38:25;;;;;;;0.40;0.40;;;17.80;99.90;16.80;101269.00;;;;5071479;28;20188;-69
2022/06/26 06:40:51;;;;;;;0.40;0.40;;;17.50;99.90;17.20;101246.00;;;;5071798;28;20243;-69
2022/06/26 06:43:17;;;;;;;0.77;0.77;;;17.20;99.90;16.60;101270.00;;;;5071591;28;20195;-69
2022/06/26 06:45:46;;;;;;;0.20;0.20;;;17.00;99.90;16.70;101295.00;;;;5073018;28;20263;-69
2022/06/26 06:48:14;;;;;;;0.30;0.30;;;16.80;99.90;18.10;101292.00;;;;5071956;28;20162;-69
2022/06/26 06:50:45;;;;;;;0.40;0.40;;;17.40;99.90;18.40;101281.00;;;;5071350;28;20159;-69
2022/06/26 06:53:28;;;;;;;0.40;0.40;;;17.90;99.90;19.30;101244.00;;;;5074010;28;20194;-69
2022/06/26 06:55:54;;;;;;;0.30;0.30;;;18.30;99.90;19.00;101273.00;;;;5076887;28;20215;-68
2022/06/26 06:58:23;;;;;;;0.60;0.57;;;18.60;99.90;17.90;101268.00;;;;5077132;28;20688;-67
2022/06/26 07:01:06;;;;;;;0.30;0.30;;;18.20;99.90;18.40;101279.00;;;;5072454;28;20189;-68
2022/06/26 07:03:32;;;;;;;0.30;0.30;;;18.00;99.90;18.70;101284.00;;;;5073304;28;20182;-67
2022/06/26 07:05:58;;;;;;;0.40;0.40;;;18.20;99.90;17.60;101291.00;;;;5075578;28;20539;-65
2022/06/26 07:08:23;;;;;;;0.30;0.30;;;17.90;99.90;17.00;101300.00;;;;5076616;28;20169;-65
2022/06/26 07:10:49;;;;;;;0.83;0.83;;;17.50;99.90;17.10;101274.00;;;;5076696;28;20181;-65
2022/06/26 07:13:17;;;;;;;0.30;0.30;;;17.30;99.90;16.90;101304.00;;;;5058362;28;20267;-65
2022/06/26 07:15:48;;;;;;;0.50;0.50;;;17.10;99.90;18.30;101303.00;;;;5076305;28;20671;-65
2022/06/26 07:18:37;;;;;;;0.30;0.30;;;17.60;99.90;19.60;101294.00;;;;5075145;28;20175;-65
2022/06/26 07:21:07;;;;;;;0.45;0.45;;;18.60;99.90;21.10;101299.00;;;;5075126;28;20188;-66
2022/06/26 07:23:35;;;;;;;0.10;0.10;;;20.20;99.90;23.60;101298.00;;;;5069236;28;20549;-66
2022/06/26 07:26:34;;;;;;;0.10;0.10;;;22.10;99.90;23.50;101307.00;;;;5057641;28;20192;-66
2022/06/26 07:29:02;;;;;;;0.10;0.10;;;23.10;99.90;24.70;101328.00;;;;5039133;28;20178;-66
2022/06/26 07:31:40;;;;;;;0.20;0.20;;;23.70;99.90;22.80;101316.00;;;;5038290;28;20194;-66
2022/06/26 07:34:26;;;;;;;0.30;0.30;;;23.10;99.90;22.80;101291.00;;;;5048568;28;20201;-66
2022/06/26 07:36:52;;;;;;;0.10;0.10;;;22.70;99.90;20.40;101291.00;;;;5068785;28;20196;-66
2022/06/26 07:39:26;;;;;;;0.73;0.73;;;21.30;99.90;20.60;101284.00;;;;5076430;28;20170;-66
2022/06/26 07:41:57;;;;;;;0.10;0.10;;;20.90;99.90;21.30;101295.00;;;;5076030;28;20656;-66
2022/06/26 07:44:52;;;;;;;0.38;0.38;;;21.00;99.90;21.90;101301.00;;;;5074685;28;20675;-66
2022/06/26 07:47:23;;;;;;;0.20;0.20;;;21.40;99.90;21.60;101303.00;;;;5074892;28;20199;-66
2022/06/26 07:50:06;;;;;;;0.20;0.20;;;21.50;99.90;21.00;101300.00;;;;5074850;28;20173;-65
2022/06/26 07:52:32;;;;;;;0.10;0.10;;;21.00;99.90;20.60;101303.00;;;;5073859;28;20197;-66
2022/06/26 07:54:59;;;;;;;1.75;0.60;;;20.80;99.90;18.50;101304.00;;;;5066904;28;20184;-66
2022/06/26 07:57:24;;;;;;;1.83;1.10;;;19.60;99.90;19.10;101314.00;;;;5044018;28;20271;-66
2022/06/26 07:59:54;;;;;;;0.55;0.55;;;19.30;99.90;19.10;101319.00;;;;5076091;28;20177;-66
2022/06/26 08:02:31;;;;;;;0.10;0.10;;;19.20;99.90;19.90;101292.00;;;;5074358;28;20166;-66
2022/06/26 08:05:16;;;;;;;0.10;0.10;;;19.60;99.90;20.60;101329.00;;;;5074088;28;20184;-67
2022/06/26 08:07:49;;;;;;;0.30;0.30;;;20.00;99.90;19.60;101321.00;;;;5058169;28;20609;-67
2022/06/26 08:10:22;;;;;;;0.10;0.10;;;19.80;99.90;19.40;101324.00;;;;5075963;28;20162;-67
2022/06/26 08:13:23;;;;;;;0.20;0.20;;;19.60;99.90;20.20;101295.00;;;;5058416;28;20228;-67
2022/06/26 08:15:55;;;;;;;0.30;0.30;;;19.70;99.90;19.30;101329.00;;;;5057511;28;20176;-66
2022/06/26 08:18:21;;;;;;;0.20;0.20;;;19.60;99.90;19.20;101337.00;;;;5074957;28;20199;-66
2022/06/26 08:20:54;;;;;;;0.10;0.10;;;19.40;99.90;19.80;101336.00;;;;5075631;28;20251;-68
2022/06/26 08:23:40;;;;;;;0.10;0.10;;;19.50;99.90;19.90;101327.00;;;;5071108;28;20216;-67
2022/06/26 08:26:06;;;;;;;0.30;0.30;;;20.00;99.90;20.80;101313.00;;;;5047395;28;20186;-67
2022/06/26 08:28:36;;;;;;;0.10;0.10;;;20.20;99.90;21.80;101323.00;;;;5053846;28;20224;-67
2022/06/26 08:31:11;;;;;;;3.75;0.98;;;20.90;99.90;21.30;101314.00;;;;5054012;28;20218;-67
2022/06/26 08:34:01;;;;;;;0.10;0.10;;;21.00;99.90;20.30;101308.00;;;;5055015;28;20265;-67
2022/06/26 08:36:47;;;;;;;0.10;0.10;;;20.70;99.90;20.20;101310.00;;;;5056911;28;20181;-67
2022/06/26 08:39:36;;;;;;;0.20;0.20;;;20.30;99.90;20.80;101319.00;;;;5065520;28;20235;-67
2022/06/26 08:42:30;;;;;;;0.20;0.20;;;20.40;99.90;21.00;101322.00;;;;5044518;28;20201;-67
2022/06/26 08:45:18;;;;;;;0.30;0.30;;;20.70;99.90;21.20;101324.00;;;;5035758;28;20272;-67
2022/06/26 08:48:11;;;;;;;0.15;0.15;;;21.00;99.90;20.40;101315.00;;;;5073546;28;20185;-67
2022/06/26 08:50:43;;;;;;;0.63;0.63;;;20.70;99.90;20.90;101291.00;;;;5073486;28;20322;-66
2022/06/26 08:53:19;;;;;;;2.03;1.92;;;20.70;99.90;21.50;101297.00;;;;5073448;28;20198;-67
2022/06/26 08:55:53;;;;;;;1.52;1.42;;;21.00;99.90;21.70;101301.00;;;;5056742;28;20187;-67
2022/06/26 08:58:41;;;;;;;0.30;0.30;;;21.20;99.90;21.00;101328.00;;;;5056902;28;20176;-67
2022/06/26 09:01:34;;;;;;;1.55;0.50;;;21.00;99.90;20.50;101333.00;;;;5056372;28;20162;-67
2022/06/26 09:04:08;;;;;;;1.13;0.63;;;20.70;99.90;20.80;101334.00;;;;5056364;28;20548;-66
2022/06/26 09:06:51;;;;;;;0.10;0.10;;;20.70;99.90;20.70;101345.00;;;;5056284;28;20605;-66
2022/06/26 09:09:27;;;;;;;0.25;0.25;;;20.70;99.90;20.70;101356.00;;;;5056687;28;20236;-66
2022/06/26 09:12:39;;;;;;;0.15;0.15;;;20.50;99.90;21.70;101375.00;;;;5056256;28;20193;-66
2022/06/26 09:15:05;;;;;;;0.10;0.10;;;21.00;99.90;20.80;101358.00;;;;5074410;28;20261;-65
2022/06/26 09:18:12;;;;;;;0.50;0.50;;;21.00;99.90;21.30;101355.00;;;;5073369;28;20186;-66
2022/06/26 09:20:58;;;;;;;1.60;0.93;;;21.10;99.90;22.40;101376.00;;;;5052745;28;20206;-66
2022/06/26 09:23:32;;;;;;;0.43;0.43;;;21.60;99.90;21.10;101370.00;;;;5047722;28;20217;-66
2022/06/26 09:26:06;;;;;;;0.40;0.40;;;21.40;99.90;21.50;101374.00;;;;5056648;28;20544;-65
2022/06/26 09:28:34;;;;;;;0.38;0.38;;;21.50;99.90;21.00;101367.00;;;;5056387;28;20175;-65
2022/06/26 09:31:07;;;;;;;0.30;0.30;;;21.20;99.90;20.60;101372.00;;;;5073680;28;20179;-65
2022/06/26 09:33:36;;;;;;;1.00;0.90;;;20.90;99.90;20.90;101343.00;;;;5074317;28;20166;-65
2022/06/26 09:36:05;;;;;;;0.28;0.28;;;20.90;99.90;20.40;101367.00;;;;5072508;28;20541;-65
2022/06/26 09:38:40;;;;;;;0.55;0.35;;;20.70;99.90;21.30;101369.00;;;;5055709;28;20190;-65
2022/06/26 09:41:08;;;;;;;0.40;0.40;;;21.10;99.90;21.00;101385.00;;;;5052320;28;20185;-65
2022/06/26 09:43:44;;;;;;;0.10;0.10;;;21.10;99.90;20.70;101377.00;;;;5036196;28;20194;-65
2022/06/26 09:46:46;;;;;;;0.10;0.10;;;20.90;99.90;21.80;101390.00;;;;5069559;28;20223;-65
2022/06/26 09:49:19;;;;;;;0.25;0.22;;;21.00;99.90;20.40;101385.00;;;;5072285;28;20219;-65
2022/06/26 09:51:54;;;;;;;0.43;0.43;;;20.90;99.90;20.50;101350.00;;;;5055846;28;20585;-63
2022/06/26 09:54:41;;;;;;;1.00;0.95;;;20.50;99.90;20.90;101352.00;;;;5072446;28;20184;-67
2022/06/26 09:57:19;;;;;;;2.03;0.60;;;20.80;99.90;21.20;101390.00;;;;5071792;28;20186;-68
2022/06/26 09:59:48;;;;;;;2.63;1.45;;;21.00;99.90;21.20;101396.00;;;;5067194;28;20204;-68
2022/06/26 10:08:04;;;;;;;0.90;0.90;;;21.10;99.90;21.60;101407.00;;;;5071052;28;20726;-65
2022/06/26 10:10:35;;;;;;;0.10;0.10;;;21.30;99.90;20.90;101394.00;;;;5070595;28;20215;-67
2022/06/26 10:13:11;;;;;;;0.10;0.10;;;21.00;99.90;20.60;101366.00;;;;5070533;28;20218;-68
2022/06/26 10:16:14;;;;;;;0.10;0.10;;;20.70;99.90;20.40;101365.00;;;;5070247;28;20184;-68
2022/06/26 10:19:47;;;;;;;0.32;0.25;;;20.50;99.90;20.60;101397.00;;;;5070182;28;20184;-67
2022/06/26 10:33:14;;;;;;;0.20;0.20;;;20.80;99.90;20.90;101412.00;;;;5068980;28;20676;-69
2022/06/26 10:35:49;;;;;;;0.20;0.20;;;20.90;99.90;21.80;101440.00;;;;5064132;28;20544;-68
2022/06/26 10:38:31;;;;;;;0.28;0.28;;;21.30;99.90;21.10;101436.00;;;;5056966;28;20182;-69
2022/06/26 10:44:14;;;;;;;0.10;0.10;;;21.20;99.90;21.20;101410.00;;;;5043401;28;20190;-68
2022/06/26 10:46:56;;;;;;;0.93;0.60;;;21.00;99.90;21.80;101440.00;;;;5032075;28;20832;-68
2022/06/26 10:49:28;;;;;;;0.10;0.10;;;21.40;99.90;21.80;101438.00;;;;5048865;28;20595;-68
2022/06/26 10:52:07;;;;;;;0.77;0.77;;;21.50;99.90;21.90;101428.00;;;;5049242;28;20221;-68
2022/06/26 10:54:35;;;;;;;0.10;0.10;;;21.70;99.90;22.10;101432.00;;;;5050923;28;20201;-67
2022/06/26 10:57:17;;;;;;;4.68;0.65;;;21.80;99.90;21.90;101453.00;;;;5064580;28;20178;-67
2022/06/26 10:59:45;;;;;;;0.10;0.10;;;21.60;99.90;23.00;101477.00;;;;5050256;28;20193;-67
2022/06/26 11:02:15;;;;;;;0.50;0.50;;;21.90;99.90;22.70;101474.00;;;;5065525;28;20699;-68
2022/06/26 11:04:49;;;;;;;0.50;0.50;;;22.00;99.90;21.70;101482.00;;;;5048695;28;20653;-68
2022/06/26 11:07:44;;;;;;;0.10;0.10;;;21.80;99.90;22.80;101484.00;;;;5048899;28;20196;-68
2022/06/26 11:10:51;;;;;;;0.10;0.10;;;21.80;99.90;22.40;101474.00;;;;5065706;28;20205;-68
2022/06/26 11:13:29;;;;;;;0.10;0.10;;;21.90;99.90;22.30;101479.00;;;;5050769;28;20619;-69
2022/06/26 11:16:27;;;;;;;0.10;0.10;;;22.00;99.90;21.90;101468.00;;;;5058560;28;20182;-67
2022/06/26 11:18:59;;;;;;;0.30;0.30;;;22.10;99.90;21.80;101463.00;;;;5048634;28;20711;-68
2022/06/26 11:21:47;;;;;;;1.60;1.50;;;21.90;99.90;22.60;101478.00;;;;5065204;28;20213;-65
2022/06/26 11:24:15;;;;;;;0.10;0.10;;;22.40;99.90;23.90;101475.00;;;;5048631;28;20179;-67
2022/06/26 11:26:46;;;;;;;0.10;0.10;;;22.80;99.90;23.30;101487.00;;;;5064670;28;20198;-67
2022/06/26 11:29:23;;;;;;;0.45;0.45;;;23.40;99.90;22.50;101487.00;;;;5048480;28;20178;-67
2022/06/26 11:32:25;;;;;;;1.55;0.43;;;22.70;99.90;24.20;101521.00;;;;5047981;28;20257;-68
2022/06/26 11:34:53;;;;;;;0.10;0.10;;;23.40;99.90;24.00;101517.00;;;;5048347;28;20253;-68
2022/06/26 11:37:38;;;;;;;3.00;0.32;;;23.50;99.90;23.20;101485.00;;;;5048030;28;20189;-68
2022/06/26 11:40:54;;;;;;;0.10;0.10;;;23.40;99.90;23.60;101523.00;;;;5064986;28;20587;-68
2022/06/26 11:44:06;;;;;;;0.10;0.10;;;23.10;99.90;22.80;101515.00;;;;5041330;28;20191;-68
2022/06/26 11:47:20;;;;;;;0.10;0.10;;;22.80;99.90;23.70;101491.00;;;;5033874;28;20274;-67